createdAt,value
2022-09-10T00:09:49.984Z,16.04
2022-09-10T00:29:49.927Z,15.88
2022-09-10T00:49:49.883Z,15.74
2022-09-10T01:09:49.787Z,15.67
2022-09-10T01:29:49.845Z,15.60
2022-09-10T01:49:49.800Z,15.66
2022-09-10T02:09:49.775Z,15.65
2022-09-10T02:29:49.687Z,15.50
2022-09-10T02:49:49.674Z,15.33
2022-09-10T03:09:49.642Z,15.14
2022-09-10T03:29:49.592Z,15.04
2022-09-10T03:49:49.566Z,14.89
2022-09-10T04:09:49.555Z,14.89
2022-09-10T04:29:49.520Z,15.08
2022-09-10T04:49:49.485Z,15.21
2022-09-10T05:09:49.454Z,15.38
2022-09-10T05:29:49.443Z,15.35
2022-09-10T05:49:49.413Z,15.58
2022-09-10T06:09:49.386Z,15.73
2022-09-10T06:29:49.350Z,15.62
2022-09-10T06:49:49.333Z,15.67
2022-09-10T07:09:49.306Z,15.79
2022-09-10T07:29:49.269Z,15.88
2022-09-10T07:49:49.243Z,16.02
2022-09-10T08:09:49.233Z,16.20
2022-09-10T08:29:49.202Z,16.39
2022-09-10T08:49:49.176Z,16.48
2022-09-10T09:09:49.140Z,16.55
2022-09-10T09:29:49.103Z,16.82
2022-09-10T09:49:49.096Z,17.35
2022-09-10T10:09:49.057Z,17.27
2022-09-10T10:29:49.027Z,17.68
2022-09-10T10:49:49.007Z,17.40
2022-09-10T11:09:48.970Z,16.41
2022-09-10T11:29:48.949Z,16.23
2022-09-10T11:49:48.932Z,16.50
2022-09-10T12:09:48.893Z,16.67
2022-09-10T12:29:48.852Z,17.24
2022-09-10T12:49:48.850Z,17.85
2022-09-10T13:09:48.797Z,17.69
2022-09-10T13:29:48.771Z,18.28
2022-09-10T13:49:48.833Z,18.03
2022-09-10T14:09:48.724Z,18.04
2022-09-10T14:29:48.720Z,17.74
2022-09-10T14:49:48.673Z,17.91
2022-09-10T15:09:48.640Z,17.97
2022-09-10T15:29:48.611Z,17.70
2022-09-10T15:49:48.585Z,17.17
2022-09-10T16:09:48.547Z,17.05
2022-09-10T16:29:48.550Z,17.01
2022-09-10T16:49:48.493Z,17.05
2022-09-10T17:09:48.517Z,17.01
2022-09-10T17:29:48.466Z,16.85
2022-09-10T17:49:48.496Z,16.77
2022-09-10T18:09:48.373Z,16.78
2022-09-10T18:29:48.388Z,16.72
2022-09-10T18:49:48.324Z,16.58
2022-09-10T19:09:48.303Z,16.55
2022-09-10T19:29:48.361Z,16.44
2022-09-10T19:49:48.253Z,16.35
2022-09-10T20:09:48.291Z,16.42
2022-09-10T20:29:48.185Z,16.28
2022-09-10T20:49:48.174Z,16.14
2022-09-10T21:09:48.143Z,16.26
2022-09-10T21:29:48.164Z,16.23
2022-09-10T21:49:48.080Z,16.31
2022-09-10T22:09:48.049Z,16.28
2022-09-10T22:29:48.025Z,16.10
2022-09-10T22:49:48.003Z,16.10
2022-09-10T23:09:48.006Z,16.06
2022-09-10T23:29:47.941Z,15.98
2022-09-10T23:49:47.931Z,15.96
